createdAt,value
2022-10-26T00:00:08.532Z,7.38
2022-10-26T00:02:42.622Z,8.13
2022-10-26T00:05:10.564Z,7.13
2022-10-26T00:10:08.585Z,7.43
2022-10-26T00:12:36.450Z,7.47
2022-10-26T00:15:07.371Z,7.85
2022-10-26T00:17:35.975Z,8.55
2022-10-26T00:20:03.947Z,7.97
2022-10-26T00:22:34.290Z,7.60
2022-10-26T00:25:02.221Z,7.03
2022-10-26T00:27:38.539Z,6.15
2022-10-26T00:30:07.752Z,6.63
2022-10-26T00:32:36.158Z,6.07
2022-10-26T00:35:11.879Z,6.30
2022-10-26T00:37:56.573Z,6.40
2022-10-26T00:40:28.446Z,6.60
2022-10-26T00:42:57.181Z,6.03
2022-10-26T00:45:26.821Z,7.18
2022-10-26T00:47:58.731Z,6.07
2022-10-26T00:50:33.873Z,6.68
2022-10-26T00:53:03.475Z,5.87
2022-10-26T00:55:35.138Z,6.55
2022-10-26T00:58:03.659Z,6.50
2022-10-26T01:00:32.127Z,6.45
2022-10-26T01:03:01.656Z,6.60
2022-10-26T01:05:31.047Z,6.38
2022-10-26T01:07:59.308Z,6.57
2022-10-26T01:10:27.655Z,7.22
2022-10-26T01:12:58.491Z,6.70
2022-10-26T01:15:39.433Z,6.38
2022-10-26T01:18:27.538Z,6.35
2022-10-26T01:21:07.106Z,6.85
2022-10-26T01:24:05.493Z,6.05
2022-10-26T01:26:41.020Z,6.20
2022-10-26T01:29:59.122Z,5.57
2022-10-26T01:35:01.680Z,5.15
2022-10-26T01:37:31.830Z,5.75
2022-10-26T01:40:11.568Z,5.15
2022-10-26T01:42:40.046Z,5.30
2022-10-26T01:45:08.762Z,5.97
2022-10-26T01:47:37.172Z,5.63
2022-10-26T01:50:05.501Z,5.45
2022-10-26T01:52:33.676Z,5.00
2022-10-26T01:55:03.566Z,5.57
2022-10-26T01:57:33.282Z,5.50
2022-10-26T02:00:07.103Z,5.53
2022-10-26T02:03:15.668Z,5.60
2022-10-26T02:06:09.259Z,5.03
2022-10-26T02:09:12.164Z,4.68
2022-10-26T02:11:46.781Z,5.30
2022-10-26T02:14:47.126Z,5.07
2022-10-26T02:17:49.101Z,5.18
2022-10-26T02:20:29.316Z,5.50
2022-10-26T02:22:57.110Z,4.65
2022-10-26T02:25:28.751Z,5.00
2022-10-26T02:27:59.428Z,5.30
2022-10-26T02:30:27.308Z,5.35
2022-10-26T02:32:56.794Z,6.15
2022-10-26T02:35:32.428Z,5.75
2022-10-26T02:38:01.619Z,5.60
2022-10-26T02:40:29.814Z,5.63
2022-10-26T02:43:01.032Z,5.78
2022-10-26T02:45:31.622Z,6.03
2022-10-26T02:48:02.134Z,5.75
2022-10-26T02:51:01.318Z,5.53
2022-10-26T02:53:35.682Z,6.28
2022-10-26T02:56:07.411Z,5.63
2022-10-26T02:58:37.529Z,5.93
2022-10-26T03:01:06.004Z,6.47
2022-10-26T03:03:34.373Z,5.95
2022-10-26T03:06:04.319Z,5.72
2022-10-26T03:08:34.585Z,5.70
2022-10-26T03:11:02.550Z,5.20
2022-10-26T03:13:30.341Z,5.38
2022-10-26T03:15:58.248Z,5.45
2022-10-26T03:18:27.269Z,5.25
2022-10-26T03:20:55.333Z,5.18
2022-10-26T03:23:23.174Z,5.05
2022-10-26T03:25:51.871Z,4.95
2022-10-26T03:28:20.063Z,5.13
2022-10-26T03:30:47.768Z,6.00
2022-10-26T03:33:16.832Z,4.88
2022-10-26T03:35:44.846Z,4.97
2022-10-26T03:38:15.961Z,4.90
2022-10-26T03:40:44.837Z,4.97
2022-10-26T03:43:13.232Z,4.63
2022-10-26T03:45:42.349Z,4.70
2022-10-26T03:48:10.092Z,5.13
2022-10-26T03:50:38.172Z,4.53
2022-10-26T03:53:06.184Z,4.40
2022-10-26T03:55:34.319Z,4.53
2022-10-26T03:58:02.440Z,4.82
2022-10-26T04:00:30.405Z,4.70
2022-10-26T04:03:01.359Z,4.53
2022-10-26T04:05:29.372Z,4.40
2022-10-26T04:07:58.461Z,3.88
2022-10-26T04:10:27.901Z,3.97
2022-10-26T04:12:55.863Z,3.72
2022-10-26T04:15:25.532Z,3.47
2022-10-26T04:18:00.895Z,4.13
2022-10-26T04:20:29.595Z,4.43
2022-10-26T04:23:04.572Z,3.50
2022-10-26T04:25:36.456Z,3.63
2022-10-26T04:28:05.102Z,3.78
2022-10-26T04:30:35.739Z,3.95
2022-10-26T04:33:07.887Z,3.40
2022-10-26T04:35:36.137Z,3.15
2022-10-26T04:38:05.513Z,3.42
2022-10-26T04:40:34.330Z,2.70
2022-10-26T04:43:02.257Z,2.78
2022-10-26T04:45:33.789Z,2.40
2022-10-26T04:48:07.062Z,2.80
2022-10-26T04:50:42.276Z,2.63
2022-10-26T04:53:10.926Z,2.95
2022-10-26T04:55:40.368Z,3.38
2022-10-26T04:58:09.452Z,2.67
2022-10-26T05:00:38.836Z,3.10
2022-10-26T05:03:07.450Z,3.08
2022-10-26T05:05:37.320Z,3.03
2022-10-26T05:08:06.821Z,3.20
2022-10-26T05:10:35.273Z,3.00
2022-10-26T05:13:05.298Z,2.88
2022-10-26T05:15:33.347Z,3.05
2022-10-26T05:18:05.610Z,3.05
2022-10-26T05:20:35.600Z,2.85
2022-10-26T05:23:07.447Z,3.00
2022-10-26T05:25:36.798Z,2.90
2022-10-26T05:28:06.384Z,2.85
2022-10-26T05:30:37.855Z,3.53
2022-10-26T05:33:06.059Z,2.95
2022-10-26T05:35:34.702Z,3.10
2022-10-26T05:38:09.873Z,3.67
2022-10-26T05:40:38.007Z,3.60
2022-10-26T05:43:08.351Z,3.05
2022-10-26T05:45:36.503Z,3.47
2022-10-26T05:48:05.208Z,2.80
2022-10-26T05:50:32.995Z,3.47
2022-10-26T05:53:01.001Z,3.00
2022-10-26T05:55:30.015Z,3.55
2022-10-26T05:58:16.822Z,4.53
2022-10-26T06:01:07.999Z,3.42
2022-10-26T06:03:46.471Z,3.55
2022-10-26T06:06:15.412Z,4.00
2022-10-26T06:08:44.868Z,3.40
2022-10-26T06:11:13.575Z,2.90
2022-10-26T06:13:43.615Z,3.65
2022-10-26T06:16:21.049Z,3.63
2022-10-26T06:19:19.431Z,3.47
2022-10-26T06:22:21.395Z,3.92
2022-10-26T06:25:17.918Z,3.50
2022-10-26T06:27:49.180Z,3.45
2022-10-26T06:30:35.688Z,3.83
2022-10-26T06:33:18.484Z,4.35
2022-10-26T06:36:23.373Z,4.50
2022-10-26T06:39:09.332Z,4.30
2022-10-26T06:41:37.995Z,4.90
2022-10-26T06:44:09.120Z,4.95
2022-10-26T06:46:59.250Z,5.68
2022-10-26T06:49:44.585Z,7.03
2022-10-26T06:52:57.264Z,7.50
2022-10-26T06:55:27.420Z,7.15
2022-10-26T06:58:05.932Z,8.77
2022-10-26T07:00:35.104Z,9.80
2022-10-26T07:03:03.095Z,11.35
2022-10-26T07:05:32.720Z,12.43
2022-10-26T07:08:11.682Z,12.18
2022-10-26T07:10:39.673Z,13.82
2022-10-26T07:13:07.605Z,14.95
2022-10-26T07:15:39.907Z,15.30
2022-10-26T07:18:09.194Z,16.55
2022-10-26T07:20:40.886Z,17.48
2022-10-26T07:23:12.574Z,19.05
2022-10-26T07:25:40.823Z,18.00
2022-10-26T07:28:10.608Z,18.25
2022-10-26T07:30:39.396Z,18.45
2022-10-26T07:33:10.688Z,21.70
2022-10-26T07:35:40.628Z,21.33
2022-10-26T07:38:08.822Z,25.00
2022-10-26T07:40:40.579Z,22.83
2022-10-26T07:43:08.578Z,23.92
2022-10-26T07:45:37.013Z,23.08
2022-10-26T07:48:05.230Z,25.70
2022-10-26T07:50:33.728Z,24.65
2022-10-26T07:53:01.618Z,23.58
2022-10-26T07:55:31.644Z,23.25
2022-10-26T07:57:59.978Z,23.00
2022-10-26T08:00:31.852Z,23.35
2022-10-26T08:03:00.419Z,22.65
2022-10-26T08:05:29.384Z,25.35
2022-10-26T08:07:57.137Z,24.58
2022-10-26T08:10:30.160Z,22.58
2022-10-26T08:12:58.689Z,23.50
2022-10-26T08:15:26.837Z,24.63
2022-10-26T08:17:56.046Z,22.80
2022-10-26T08:20:24.090Z,23.33
2022-10-26T08:22:53.100Z,22.65
2022-10-26T08:25:21.929Z,21.02
2022-10-26T08:27:50.064Z,20.88
2022-10-26T08:30:23.086Z,23.02
2022-10-26T08:33:01.619Z,22.55
2022-10-26T08:35:30.031Z,25.80
2022-10-26T08:37:57.871Z,20.95
2022-10-26T08:40:30.356Z,21.15
2022-10-26T08:43:07.887Z,22.67
2022-10-26T08:45:45.282Z,21.38
2022-10-26T08:48:18.917Z,22.30
2022-10-26T08:51:17.057Z,22.00
2022-10-26T08:53:54.748Z,21.85
2022-10-26T08:56:44.836Z,22.52
2022-10-26T08:59:43.282Z,24.45
2022-10-26T09:02:29.270Z,22.25
2022-10-26T09:05:39.161Z,22.27
2022-10-26T09:08:37.023Z,21.90
2022-10-26T09:11:53.104Z,22.23
2022-10-26T09:15:01.096Z,22.55
2022-10-26T15:45:34.242Z,6.55
2022-10-26T15:48:24.401Z,6.95
2022-10-26T15:50:56.835Z,7.10
2022-10-26T15:53:30.699Z,7.65
2022-10-26T15:56:00.132Z,5.70
2022-10-26T15:59:07.082Z,6.20
2022-10-26T16:01:40.695Z,6.97
2022-10-26T16:04:17.191Z,5.32
2022-10-26T16:06:49.198Z,6.70
2022-10-26T16:09:21.584Z,6.57
2022-10-26T16:11:56.351Z,6.60
2022-10-26T16:14:25.859Z,5.72
2022-10-26T16:17:00.272Z,5.72
2022-10-26T16:19:31.358Z,6.35
2022-10-26T16:22:15.525Z,6.15
2022-10-26T16:24:52.797Z,6.15
2022-10-26T16:27:31.886Z,6.00
2022-10-26T16:30:00.193Z,5.55
2022-10-26T16:32:28.251Z,5.57
2022-10-26T16:35:00.024Z,6.93
2022-10-26T16:37:30.925Z,5.95
2022-10-26T16:39:59.367Z,5.65
2022-10-26T16:42:28.608Z,5.63
2022-10-26T16:45:00.090Z,5.82
2022-10-26T16:47:35.701Z,5.85
2022-10-26T16:50:06.552Z,5.18
2022-10-26T16:52:39.528Z,5.70
2022-10-26T16:55:09.522Z,4.95
2022-10-26T16:57:58.255Z,5.30
2022-10-26T17:00:27.263Z,6.43
2022-10-26T17:02:55.151Z,5.32
2022-10-26T17:05:23.502Z,5.05
2022-10-26T17:07:52.029Z,4.90
2022-10-26T17:10:21.359Z,5.40
2022-10-26T17:12:56.511Z,5.47
2022-10-26T17:15:28.845Z,5.55
2022-10-26T17:18:04.073Z,5.00
2022-10-26T17:20:39.051Z,6.47
2022-10-26T17:23:08.350Z,5.40
2022-10-26T17:25:38.441Z,5.32
2022-10-26T17:28:10.449Z,5.63
2022-10-26T17:30:39.951Z,5.80
2022-10-26T17:33:08.527Z,5.82
2022-10-26T17:35:36.609Z,6.47
2022-10-26T17:38:07.110Z,6.00
2022-10-26T17:40:37.165Z,7.55
2022-10-26T17:43:05.635Z,7.05
2022-10-26T17:45:36.543Z,7.47
2022-10-26T17:49:40.610Z,8.52
2022-10-26T17:52:22.894Z,8.02
2022-10-26T17:55:00.418Z,7.47
2022-10-26T17:57:40.665Z,6.88
2022-10-26T18:00:50.046Z,8.07
2022-10-26T18:03:33.945Z,9.45
2022-10-26T18:06:10.460Z,12.85
2022-10-26T18:08:43.027Z,12.20
2022-10-26T18:11:23.895Z,10.10
2022-10-26T18:13:57.565Z,9.68
2022-10-26T18:16:27.533Z,8.13
2022-10-26T18:19:05.828Z,7.30
2022-10-26T18:22:04.456Z,7.57
2022-10-26T18:24:37.262Z,6.32
2022-10-26T18:27:15.425Z,6.10
2022-10-26T18:29:43.301Z,5.72
2022-10-26T18:32:11.860Z,4.88
2022-10-26T18:34:40.939Z,5.90
2022-10-26T18:37:10.937Z,4.95
2022-10-26T18:39:38.858Z,4.80
2022-10-26T18:42:11.151Z,3.50
2022-10-26T18:44:38.983Z,3.97
2022-10-26T18:47:07.103Z,3.95
2022-10-26T18:49:41.920Z,3.70
2022-10-26T18:52:10.407Z,3.85
2022-10-26T18:54:38.615Z,3.42
2022-10-26T18:57:08.301Z,3.38
2022-10-26T18:59:36.702Z,3.35
2022-10-26T19:04:36.546Z,4.00
2022-10-26T19:07:04.869Z,3.70
2022-10-26T19:09:32.989Z,3.20
2022-10-26T19:12:08.029Z,3.40
2022-10-26T19:14:44.154Z,3.83
2022-10-26T19:17:12.346Z,3.00
2022-10-26T19:19:46.873Z,3.65
2022-10-26T19:22:20.323Z,3.60
2022-10-26T19:24:49.387Z,3.63
2022-10-26T19:27:20.899Z,4.07
2022-10-26T19:29:49.448Z,3.33
2022-10-26T19:32:18.037Z,3.67
2022-10-26T19:34:46.119Z,3.38
2022-10-26T19:37:14.245Z,3.83
2022-10-26T19:39:44.049Z,3.80
2022-10-26T19:42:16.879Z,3.83
2022-10-26T19:44:45.723Z,4.30
2022-10-26T19:47:13.739Z,6.00
2022-10-26T19:49:42.110Z,5.68
2022-10-26T19:52:14.363Z,4.68
2022-10-26T19:54:43.154Z,5.50
2022-10-26T19:57:12.377Z,6.68
2022-10-26T19:59:40.191Z,7.95
2022-10-26T20:02:08.387Z,8.52
2022-10-26T20:04:40.329Z,9.95
2022-10-26T20:07:08.220Z,12.50
2022-10-26T20:09:40.258Z,12.88
2022-10-26T20:12:12.388Z,12.45
2022-10-26T20:14:40.654Z,12.23
2022-10-26T20:18:32.109Z,14.00
2022-10-26T20:21:01.125Z,10.30
2022-10-26T20:23:29.197Z,8.00
2022-10-26T20:26:00.514Z,6.50
2022-10-26T20:28:28.464Z,5.63
2022-10-26T20:30:57.312Z,5.50
2022-10-26T20:33:28.508Z,4.53
2022-10-26T20:35:59.524Z,4.35
2022-10-26T20:38:27.942Z,3.92
2022-10-26T20:40:57.595Z,4.18
2022-10-26T20:43:26.594Z,4.20
2022-10-26T20:45:56.150Z,3.45
2022-10-26T21:29:53.422Z,2.90
2022-10-26T21:32:21.200Z,3.30
2022-10-26T21:34:49.214Z,3.20
2022-10-26T21:37:17.053Z,2.78
2022-10-26T21:39:45.299Z,3.22
2022-10-26T21:42:13.127Z,2.85
2022-10-26T21:44:42.107Z,2.33
2022-10-26T21:47:14.823Z,3.00
2022-10-26T21:49:43.563Z,2.80
2022-10-26T21:52:13.551Z,2.47
2022-10-26T21:54:41.651Z,3.10
2022-10-26T21:57:09.666Z,2.55
2022-10-26T21:59:38.540Z,3.17
2022-10-26T22:02:06.561Z,2.55
2022-10-26T22:04:35.207Z,2.53
2022-10-26T22:07:03.570Z,2.38
2022-10-26T22:09:37.283Z,3.03
2022-10-26T22:12:13.040Z,2.50
2022-10-26T22:14:43.349Z,2.55
2022-10-26T22:17:13.863Z,2.50
2022-10-26T22:19:42.401Z,3.35
2022-10-26T22:22:10.554Z,2.88
2022-10-26T22:24:42.478Z,2.45
2022-10-26T22:27:10.816Z,3.10
2022-10-26T22:29:39.046Z,2.58
2022-10-26T22:32:08.462Z,2.45
2022-10-26T22:34:38.242Z,2.30
2022-10-26T22:37:11.959Z,2.17
2022-10-26T22:39:40.227Z,2.42
2022-10-26T22:42:08.466Z,3.58
2022-10-26T22:44:36.382Z,2.67
2022-10-26T22:47:04.194Z,3.63
2022-10-26T22:49:32.972Z,2.67
2022-10-26T22:52:02.485Z,3.08
2022-10-26T22:54:31.587Z,3.42
2022-10-26T22:57:01.948Z,3.03
2022-10-26T22:59:29.932Z,2.85
2022-10-26T23:01:58.767Z,3.55
2022-10-26T23:05:01.238Z,3.03
2022-10-26T23:07:29.918Z,3.22
2022-10-26T23:09:59.031Z,3.20
2022-10-26T23:12:26.874Z,3.70
2022-10-26T23:14:59.878Z,3.60
2022-10-26T23:17:28.615Z,3.10
2022-10-26T23:19:56.666Z,3.20
2022-10-26T23:22:25.542Z,3.25
2022-10-26T23:24:55.069Z,2.58
2022-10-26T23:27:22.948Z,3.20
2022-10-26T23:29:51.706Z,3.40
2022-10-26T23:32:20.316Z,3.35
2022-10-26T23:34:48.640Z,3.75
2022-10-26T23:37:19.584Z,4.13
2022-10-26T23:39:47.666Z,3.78
2022-10-26T23:42:15.648Z,3.63
2022-10-26T23:44:43.558Z,3.97
2022-10-26T23:47:11.688Z,3.92
2022-10-26T23:49:39.980Z,3.40
2022-10-26T23:52:07.999Z,4.43
2022-10-26T23:54:36.161Z,4.93
2022-10-26T23:57:04.747Z,5.40
2022-10-26T23:59:33.386Z,4.78
